Time;durP1;ratioP1;P1;durP2;ratioP2;P2;SDS_P1;SDS_P2;PMS_P1;PMS_P2;Temp;Humidity;BMP_temperature;BMP_pressure;BME280_temperature;BME280_humidity;BME280_pressure;Samples;Min_cycle;Max_cycle;Signal;HPM_P1;HPM_P2
2022/09/22 00:07:28;;;;;;;18.40;10.20;;;;;;;7.61;83.05;99182.42;434009;1267;108872;-38
2022/09/22 00:17:35;;;;;;;15.20;10.60;;;;;;;7.42;83.04;99178.32;433923;1267;97887;-40
2022/09/22 00:27:43;;;;;;;16.80;10.80;;;;;;;7.13;82.99;99182.86;434007;1267;97893;-39
2022/09/22 00:37:50;;;;;;;18.50;11.30;;;;;;;6.92;82.88;99183.84;433857;1267;110811;-40
2022/09/22 00:47:57;;;;;;;13.20;10.20;;;;;;;6.90;83.35;99177.48;433941;1267;108955;-40
2022/09/22 00:58:10;;;;;;;14.00;8.60;;;;;;;6.99;83.41;99180.11;434082;1267;96676;-40
2022/09/22 01:08:18;;;;;;;16.10;10.90;;;;;;;6.81;83.14;99169.56;434115;1267;109056;-40
2022/09/22 01:18:23;;;;;;;20.00;11.50;;;;;;;6.59;83.33;99165.28;434128;1267;108831;-40
2022/09/22 01:28:51;;;;;;;11.10;8.60;;;;;;;6.45;83.23;99166.74;434722;1256;97911;-39
2022/09/22 01:38:58;;;;;;;14.70;9.50;;;;;;;6.30;83.12;99161.53;434200;1267;108709;-40
2022/09/22 01:49:09;;;;;;;16.40;9.60;;;;;;;6.31;83.37;99163.40;434262;1265;97416;-41
2022/09/22 01:59:20;;;;;;;19.60;12.90;;;;;;;6.35;83.62;99157.27;434052;1265;111080;-41
2022/09/22 02:09:30;;;;;;;18.30;13.00;;;;;;;6.20;83.53;99163.50;433937;1265;108909;-40
2022/09/22 02:19:38;;;;;;;15.50;10.50;;;;;;;6.05;83.37;99165.14;434173;1265;97522;-38
2022/09/22 02:40:03;;;;;;;16.60;11.40;;;;;;;5.87;83.39;99171.34;434044;1265;108636;-39
2022/09/22 02:50:13;;;;;;;21.60;15.00;;;;;;;5.92;83.71;99168.31;434305;1265;97873;-39
2022/09/22 03:00:22;;;;;;;26.40;14.90;;;;;;;5.69;83.57;99164.50;434280;1267;111188;-40
2022/09/22 03:10:29;;;;;;;20.20;13.50;;;;;;;5.62;83.85;99171.09;433983;1265;109081;-39
2022/09/22 03:20:37;;;;;;;20.90;14.20;;;;;;;5.82;84.11;99170.81;434368;1265;98003;-40
2022/09/22 03:30:44;;;;;;;24.60;15.60;;;;;;;6.03;84.39;99175.26;434069;1265;110951;-40
2022/09/22 03:40:57;;;;;;;25.90;16.40;;;;;;;6.18;84.36;99176.45;434451;1265;108833;-39
2022/09/22 03:51:03;;;;;;;24.80;16.90;;;;;;;6.14;84.34;99179.60;434273;1265;97974;-40
2022/09/22 04:01:11;;;;;;;31.60;21.10;;;;;;;6.06;84.38;99173.79;434366;1265;111029;-39
2022/09/22 04:11:18;;;;;;;22.40;16.10;;;;;;;5.94;84.23;99171.09;433850;1265;109063;-42
2022/09/22 04:21:25;;;;;;;19.20;14.50;;;;;;;5.81;84.19;99170.02;434167;1264;98188;-39
2022/09/22 04:31:33;;;;;;;20.00;14.40;;;;;;;5.86;84.48;99163.63;434343;1266;110570;-40
2022/09/22 04:41:39;;;;;;;29.90;17.10;;;;;;;5.94;84.35;99161.77;434005;1265;108437;-40
2022/09/22 04:51:47;;;;;;;30.70;17.40;;;;;;;5.83;84.53;99172.15;434048;1266;97478;-39
2022/09/22 05:01:54;;;;;;;27.50;17.50;;;;;;;6.00;84.73;99170.89;434311;1265;111028;-40
2022/09/22 05:12:01;;;;;;;26.60;17.00;;;;;;;6.32;85.08;99171.13;434029;1265;108866;-41
2022/09/22 05:22:08;;;;;;;32.10;18.20;;;;;;;6.67;85.25;99181.46;434337;1265;96635;-40
2022/09/22 05:32:16;;;;;;;29.40;17.80;;;;;;;6.89;85.19;99186.81;434295;1266;108982;-40
2022/09/22 05:42:23;;;;;;;38.50;23.10;;;;;;;6.96;85.22;99195.55;434509;1265;96963;-40
2022/09/22 05:52:30;;;;;;;48.50;24.30;;;;;;;6.98;85.36;99207.94;434228;1265;97887;-40
2022/09/22 06:02:38;;;;;;;30.90;19.00;;;;;;;6.99;85.27;99216.44;434074;1265;111292;-40
2022/09/22 06:12:45;;;;;;;25.90;16.50;;;;;;;7.14;85.43;99214.88;434253;1265;108583;-41
2022/09/22 06:22:51;;;;;;;27.90;17.60;;;;;;;7.52;85.59;99217.88;433940;1265;251391;-40
2022/09/22 06:32:59;;;;;;;25.90;15.80;;;;;;;7.81;85.58;99217.52;434196;1265;108908;-40
2022/09/22 06:43:08;;;;;;;34.80;20.40;;;;;;;8.10;85.79;99214.84;437017;1267;96600;-40
2022/09/22 06:53:17;;;;;;;37.50;21.20;;;;;;;8.07;85.77;99220.11;434264;1265;98550;-41
2022/09/22 07:03:26;;;;;;;21.60;14.50;;;;;;;8.26;85.76;99219.55;433744;1268;111383;-40
2022/09/22 07:13:37;;;;;;;23.90;15.00;;;;;;;8.69;85.68;99221.55;434433;1265;108906;-40
2022/09/22 07:23:45;;;;;;;26.50;18.00;;;;;;;9.41;85.83;99218.98;434632;1265;97480;-41
2022/09/22 07:33:55;;;;;;;28.10;18.90;;;;;;;9.96;85.91;99211.17;434188;1265;108835;-41
2022/09/22 07:45:11;;;;;;;20.50;14.60;;;;;;;10.54;85.89;99213.91;434154;1266;97464;-40
2022/09/22 07:54:29;;;;;;;11.40;9.30;;;;;;;10.62;85.11;99211.69;434440;1265;111143;-40
2022/09/22 08:04:37;;;;;;;10.40;8.30;;;;;;;11.45;85.69;99216.23;434198;1265;108837;-40
2022/09/22 08:14:46;;;;;;;15.70;10.00;;;;;;;11.63;84.79;99223.34;434035;1264;97868;-40
2022/09/22 08:24:53;;;;;;;12.30;8.10;;;;;;;11.65;84.52;99223.17;434260;1265;111225;-40
2022/09/22 08:35:00;;;;;;;16.10;11.90;;;;;;;11.60;84.16;99219.02;434203;1265;109038;-40
2022/09/22 08:45:11;;;;;;;15.60;10.70;;;;;;;11.62;84.11;99219.61;433709;1265;97476;-39
2022/09/22 08:55:23;;;;;;;17.10;11.30;;;;;;;11.55;84.06;99225.59;434276;1265;110759;-41
2022/09/22 09:16:12;;;;;;;9.30;5.10;;;;;;;11.66;83.54;99222.78;434102;1264;107840;-40
2022/09/22 09:26:19;;;;;;;9.30;5.90;;;;;;;11.69;83.37;99227.44;434285;1265;97490;-41
2022/09/22 09:36:28;;;;;;;9.60;5.70;;;;;;;11.85;83.44;99229.79;434137;1265;109437;-41
2022/09/22 09:46:47;;;;;;;7.50;3.60;;;;;;;12.17;83.24;99229.77;434012;1265;97455;-40
2022/09/22 09:57:05;;;;;;;6.20;4.10;;;;;;;12.70;83.02;99220.05;434142;1265;111304;-41
2022/09/22 10:07:11;;;;;;;6.20;3.60;;;;;;;13.33;82.71;99216.79;434221;1265;109078;-40
2022/09/22 10:17:20;;;;;;;3.60;3.20;;;;;;;13.55;81.99;99217.02;434227;1265;98605;-41
2022/09/22 10:27:30;;;;;;;7.60;3.10;;;;;;;13.89;81.04;99214.98;434430;1265;110616;-40
2022/09/22 10:37:37;;;;;;;3.30;2.70;;;;;;;13.94;79.89;99213.89;433994;1265;108761;-41
2022/09/22 10:47:52;;;;;;;7.10;3.50;;;;;;;13.85;79.20;99212.66;434378;1265;96663;-41
2022/09/22 10:58:00;;;;;;;4.90;2.90;;;;;;;14.19;78.69;99202.55;434062;1264;99462;-41
2022/09/22 11:18:37;;;;;;;2.70;2.30;;;;;;;14.86;77.56;99190.05;434251;1265;109031;-40
2022/09/22 11:28:53;;;;;;;2.20;2.00;;;;;;;15.15;76.88;99180.30;433882;1265;108705;-40
2022/09/22 11:49:12;;;;;;;3.80;2.20;;;;;;;14.42;75.00;99162.45;434091;1265;111212;-40
2022/09/22 11:59:27;;;;;;;2.90;2.20;;;;;;;14.01;75.10;99158.16;434373;1265;108771;-40
2022/09/22 12:09:34;;;;;;;7.40;3.80;;;;;;;13.99;75.00;99152.89;434270;1268;108724;-41
2022/09/22 12:19:40;;;;;;;5.80;2.20;;;;;;;13.91;75.45;99151.38;434447;1265;98002;-41
2022/09/22 12:29:54;;;;;;;6.00;2.40;;;;;;;13.75;75.29;99154.22;434238;1264;108976;-41
2022/09/22 12:39:59;;;;;;;5.20;2.70;;;;;;;13.81;75.82;99143.06;433625;1264;98142;-41
2022/09/22 12:50:30;;;;;;;5.40;2.20;;;;;;;13.78;75.67;99136.94;434272;1265;98594;-41
2022/09/22 13:00:39;;;;;;;5.50;1.90;;;;;;;13.54;75.17;99131.45;434091;1265;111106;-40
2022/09/22 13:31:25;;;;;;;2.60;1.80;;;;;;;14.46;74.32;99129.52;434414;1265;97940;-41
2022/09/22 13:41:40;;;;;;;3.50;1.40;;;;;;;14.40;73.68;99119.70;434032;1264;110063;-40
2022/09/22 13:51:46;;;;;;;2.90;1.70;;;;;;;14.16;73.15;99113.35;434262;1266;108870;-40
2022/09/22 14:01:54;;;;;;;7.10;1.90;;;;;;;13.94;72.74;99110.90;434307;1265;97683;-40
2022/09/22 14:12:01;;;;;;;2.30;1.50;;;;;;;13.87;72.70;99110.13;434483;1265;110999;-40
2022/09/22 14:22:14;;;;;;;4.80;2.40;;;;;;;13.78;72.59;99118.02;434436;1264;108789;-40
2022/09/22 14:32:25;;;;;;;1.60;1.40;;;;;;;14.01;72.41;99110.29;433876;1265;108891;-41
2022/09/22 14:42:33;;;;;;;2.90;1.80;;;;;;;14.25;71.98;99108.51;434184;1265;97551;-40
2022/09/22 14:52:39;;;;;;;4.40;2.60;;;;;;;14.17;71.73;99106.15;434072;1265;111033;-41
2022/09/22 15:02:54;;;;;;;6.00;1.90;;;;;;;13.90;71.48;99105.36;434227;1265;108777;-41
2022/09/22 15:33:28;;;;;;;8.40;3.20;;;;;;;12.99;72.09;99109.30;434189;1264;108616;-41
2022/09/22 15:43:33;;;;;;;33.00;11.50;;;;;;;12.72;72.43;99113.55;433968;1265;107949;-41
2022/09/22 15:53:41;;;;;;;13.20;6.20;;;;;;;12.51;72.68;99106.22;433859;1265;97188;-41
2022/09/22 16:03:49;;;;;;;22.00;14.20;;;;;;;12.37;72.83;99103.69;434307;1264;111199;-42
2022/09/22 16:24:08;;;;;;;27.10;12.70;;;;;;;12.16;73.41;99104.45;433837;1265;97490;-40
2022/09/22 16:34:16;;;;;;;12.90;9.00;;;;;;;11.95;73.53;99103.81;433929;1264;111119;-40
2022/09/22 16:44:24;;;;;;;29.70;13.00;;;;;;;11.70;73.66;99100.67;434455;1265;108753;-41
2022/09/22 16:54:33;;;;;;;40.10;17.80;;;;;;;11.48;73.80;99113.52;434157;1265;97875;-42
2022/09/22 17:04:39;;;;;;;;;;;;;;;11.29;74.08;99126.30;433946;1265;110029;-40
2022/09/22 17:14:47;;;;;;;42.00;21.30;;;;;;;11.14;74.43;99132.30;433846;1266;108400;-42
2022/09/22 17:35:01;;;;;;;50.50;33.60;;;;;;;10.43;75.04;99132.98;434493;1264;111254;-41
2022/09/22 17:45:11;;;;;;;49.20;29.40;;;;;;;10.07;75.28;99135.53;434075;1265;109105;-41
2022/09/22 17:55:24;;;;;;;34.60;22.20;;;;;;;9.80;75.49;99134.20;434156;1265;96641;-40
2022/09/22 18:05:31;;;;;;;35.70;24.20;;;;;;;9.70;76.03;99143.98;434265;1265;111178;-40
2022/09/22 18:15:40;;;;;;;52.50;28.40;;;;;;;9.54;76.37;99155.54;434298;1264;109048;-39
2022/09/22 18:25:50;;;;;;;85.30;47.70;;;;;;;9.37;76.78;99160.08;434154;1265;97592;-41
2022/09/22 18:35:58;;;;;;;63.60;37.30;;;;;;;9.10;76.89;99161.49;434053;1265;108374;-40
2022/09/22 18:46:06;;;;;;;59.20;33.10;;;;;;;8.93;77.09;99166.96;433674;1264;97277;-40
2022/09/22 18:56:15;;;;;;;57.50;33.70;;;;;;;8.85;77.31;99168.65;434299;1264;109693;-40
2022/09/22 19:06:22;;;;;;;70.40;40.00;;;;;;;8.79;77.59;99167.61;434224;1265;108766;-41
2022/09/22 19:16:31;;;;;;;54.20;34.10;;;;;;;8.74;78.06;99166.02;434143;1264;97907;-41
2022/09/22 19:26:41;;;;;;;42.50;27.30;;;;;;;8.65;78.21;99164.48;433827;1265;110762;-40
2022/09/22 19:46:55;;;;;;;42.50;27.10;;;;;;;8.79;78.74;99170.36;433985;1265;97914;-40
2022/09/22 20:07:10;;;;;;;48.40;28.20;;;;;;;8.80;79.25;99178.65;434345;1265;97914;-40
2022/09/22 20:17:17;;;;;;;42.70;24.80;;;;;;;8.83;79.38;99173.31;433745;1263;96953;-40
2022/09/22 20:37:30;;;;;;;46.90;24.50;;;;;;;9.07;79.81;99162.04;434004;1266;97538;-39
2022/09/22 20:47:38;;;;;;;43.20;22.20;;;;;;;9.20;80.02;99156.55;434461;1266;111021;-39
2022/09/22 20:57:45;;;;;;;34.60;20.30;;;;;;;9.25;80.03;99160.67;434041;1267;108714;-40
2022/09/22 21:10:33;;;;;;;43.10;24.60;;;;;;;9.13;80.17;99157.02;433970;1266;97479;-40
2022/09/22 21:18:18;;;;;;;36.20;20.70;;;;;;;9.06;80.09;99150.95;434130;1266;111259;-40
2022/09/22 21:28:25;;;;;;;32.40;19.10;;;;;;;9.00;80.27;99148.21;433676;1266;108863;-40
2022/09/22 21:38:33;;;;;;;38.60;20.10;;;;;;;9.12;80.50;99152.89;434377;1266;97888;-40
2022/09/22 21:48:41;;;;;;;38.00;20.30;;;;;;;9.26;80.66;99143.67;434607;1265;108835;-40
2022/09/22 21:58:50;;;;;;;31.70;20.10;;;;;;;9.19;80.63;99149.81;434305;1267;96695;-40
2022/09/22 22:19:06;;;;;;;24.90;15.00;;;;;;;9.07;80.82;99143.21;434328;1266;108784;-41
2022/09/22 22:29:14;;;;;;;23.90;13.90;;;;;;;9.06;80.87;99136.84;434060;1267;96670;-40
2022/09/22 22:39:21;;;;;;;36.50;17.90;;;;;;;9.07;81.19;99132.73;434437;1265;108806;-40
2022/09/22 22:49:28;;;;;;;30.30;17.30;;;;;;;8.96;81.28;99131.13;433878;1265;108762;-41
2022/09/22 22:59:36;;;;;;;24.70;16.10;;;;;;;8.91;81.41;99124.56;434284;1265;98693;-40
2022/09/22 23:09:43;;;;;;;25.60;17.00;;;;;;;8.95;81.38;99120.09;434254;1265;108899;-41
2022/09/22 23:19:50;;;;;;;23.40;15.20;;;;;;;9.04;81.70;99109.80;434002;1265;97461;-40
2022/09/22 23:29:57;;;;;;;29.80;17.20;;;;;;;9.13;81.58;99101.66;434385;1265;110758;-39
2022/09/22 23:40:04;;;;;;;25.20;17.00;;;;;;;8.93;81.49;99093.33;434161;1265;109199;-40
2022/09/22 23:50:09;;;;;;;23.20;15.90;;;;;;;8.71;81.49;99093.34;434036;1265;97547;-41
